sensor_id;sensor_type;location;lat;lon;timestamp;P1;durP1;ratioP1;P2;durP2;ratioP2
7295;SDS011;40758;54.038;11.684;2023-04-10T00:02:13;21.02;;;10.45;;
7295;SDS011;40758;54.038;11.684;2023-04-10T00:04:39;16.00;;;9.45;;
7295;SDS011;40758;54.038;11.684;2023-04-10T00:07:09;16.92;;;11.10;;
7295;SDS011;40758;54.038;11.684;2023-04-10T00:09:36;17.00;;;10.95;;
7295;SDS011;40758;54.038;11.684;2023-04-10T00:12:03;17.95;;;10.15;;
7295;SDS011;40758;54.038;11.684;2023-04-10T00:14:39;16.85;;;11.55;;
7295;SDS011;40758;54.038;11.684;2023-04-10T00:17:05;18.58;;;10.65;;
7295;SDS011;40758;54.038;11.684;2023-04-10T00:19:35;14.43;;;9.48;;
7295;SDS011;40758;54.038;11.684;2023-04-10T00:22:02;15.88;;;10.45;;
7295;SDS011;40758;54.038;11.684;2023-04-10T00:24:30;18.45;;;9.07;;
7295;SDS011;40758;54.038;11.684;2023-04-10T00:26:56;17.23;;;10.30;;
7295;SDS011;40758;54.038;11.684;2023-04-10T00:29:23;20.05;;;11.20;;
7295;SDS011;40758;54.038;11.684;2023-04-10T00:31:50;21.45;;;11.05;;
7295;SDS011;40758;54.038;11.684;2023-04-10T00:34:17;19.92;;;11.05;;
7295;SDS011;40758;54.038;11.684;2023-04-10T00:36:44;19.20;;;13.02;;
7295;SDS011;40758;54.038;11.684;2023-04-10T00:39:12;19.10;;;14.23;;
7295;SDS011;40758;54.038;11.684;2023-04-10T00:41:39;21.45;;;10.90;;
7295;SDS011;40758;54.038;11.684;2023-04-10T00:44:06;19.52;;;11.38;;
7295;SDS011;40758;54.038;11.684;2023-04-10T00:46:35;21.45;;;12.48;;
7295;SDS011;40758;54.038;11.684;2023-04-10T00:51:54;19.70;;;11.07;;
7295;SDS011;40758;54.038;11.684;2023-04-10T00:54:23;16.83;;;13.90;;
7295;SDS011;40758;54.038;11.684;2023-04-10T00:56:51;22.88;;;13.88;;
7295;SDS011;40758;54.038;11.684;2023-04-10T00:59:18;20.98;;;11.13;;
7295;SDS011;40758;54.038;11.684;2023-04-10T01:01:45;19.05;;;10.82;;
7295;SDS011;40758;54.038;11.684;2023-04-10T01:04:11;18.38;;;11.50;;
7295;SDS011;40758;54.038;11.684;2023-04-10T01:09:16;20.25;;;11.52;;
7295;SDS011;40758;54.038;11.684;2023-04-10T01:12:26;18.35;;;12.40;;
7295;SDS011;40758;54.038;11.684;2023-04-10T01:20:11;24.05;;;11.80;;
7295;SDS011;40758;54.038;11.684;2023-04-10T01:23:24;19.77;;;11.93;;
7295;SDS011;40758;54.038;11.684;2023-04-10T01:25:47;22.77;;;12.00;;
7295;SDS011;40758;54.038;11.684;2023-04-10T01:31:43;18.77;;;12.07;;
7295;SDS011;40758;54.038;11.684;2023-04-10T01:34:14;19.00;;;10.35;;
7295;SDS011;40758;54.038;11.684;2023-04-10T01:37:07;21.63;;;12.07;;
7295;SDS011;40758;54.038;11.684;2023-04-10T01:39:38;21.17;;;12.02;;
7295;SDS011;40758;54.038;11.684;2023-04-10T01:42:07;25.70;;;13.95;;
7295;SDS011;40758;54.038;11.684;2023-04-10T01:44:39;27.70;;;13.93;;
7295;SDS011;40758;54.038;11.684;2023-04-10T01:47:08;22.13;;;13.15;;
7295;SDS011;40758;54.038;11.684;2023-04-10T01:49:34;18.40;;;11.43;;
7295;SDS011;40758;54.038;11.684;2023-04-10T01:52:08;27.48;;;17.70;;
7295;SDS011;40758;54.038;11.684;2023-04-10T01:54:41;19.90;;;12.90;;
7295;SDS011;40758;54.038;11.684;2023-04-10T01:59:56;18.13;;;10.23;;
7295;SDS011;40758;54.038;11.684;2023-04-10T02:02:23;16.80;;;11.20;;
7295;SDS011;40758;54.038;11.684;2023-04-10T02:04:50;20.20;;;17.92;;
7295;SDS011;40758;54.038;11.684;2023-04-10T02:08:04;24.50;;;13.18;;
7295;SDS011;40758;54.038;11.684;2023-04-10T02:10:19;21.67;;;12.30;;
7295;SDS011;40758;54.038;11.684;2023-04-10T02:13:04;20.90;;;12.82;;
7295;SDS011;40758;54.038;11.684;2023-04-10T02:15:35;20.58;;;12.43;;
7295;SDS011;40758;54.038;11.684;2023-04-10T02:18:02;22.55;;;12.15;;
7295;SDS011;40758;54.038;11.684;2023-04-10T02:20:30;21.77;;;11.90;;
7295;SDS011;40758;54.038;11.684;2023-04-10T02:22:58;20.30;;;11.60;;
7295;SDS011;40758;54.038;11.684;2023-04-10T02:25:32;25.77;;;13.40;;
7295;SDS011;40758;54.038;11.684;2023-04-10T02:28:05;23.90;;;13.35;;
7295;SDS011;40758;54.038;11.684;2023-04-10T02:30:33;21.15;;;12.73;;
7295;SDS011;40758;54.038;11.684;2023-04-10T02:33:00;20.67;;;12.20;;
7295;SDS011;40758;54.038;11.684;2023-04-10T02:35:27;21.67;;;12.05;;
7295;SDS011;40758;54.038;11.684;2023-04-10T02:37:54;21.42;;;13.52;;
7295;SDS011;40758;54.038;11.684;2023-04-10T02:40:21;18.90;;;10.93;;
7295;SDS011;40758;54.038;11.684;2023-04-10T02:42:51;17.15;;;10.48;;
7295;SDS011;40758;54.038;11.684;2023-04-10T02:45:17;18.33;;;12.27;;
7295;SDS011;40758;54.038;11.684;2023-04-10T02:47:44;18.73;;;9.98;;
7295;SDS011;40758;54.038;11.684;2023-04-10T02:50:10;20.92;;;11.68;;
7295;SDS011;40758;54.038;11.684;2023-04-10T02:52:37;15.73;;;10.40;;
7295;SDS011;40758;54.038;11.684;2023-04-10T02:55:04;18.00;;;10.38;;
7295;SDS011;40758;54.038;11.684;2023-04-10T02:57:33;17.90;;;12.15;;
7295;SDS011;40758;54.038;11.684;2023-04-10T02:59:59;16.73;;;9.13;;
7295;SDS011;40758;54.038;11.684;2023-04-10T03:02:28;17.48;;;10.68;;
7295;SDS011;40758;54.038;11.684;2023-04-10T03:04:55;19.42;;;10.23;;
7295;SDS011;40758;54.038;11.684;2023-04-10T03:07:22;18.52;;;11.07;;
7295;SDS011;40758;54.038;11.684;2023-04-10T03:09:48;19.42;;;10.55;;
7295;SDS011;40758;54.038;11.684;2023-04-10T03:12:15;16.05;;;9.38;;
7295;SDS011;40758;54.038;11.684;2023-04-10T03:14:46;17.10;;;10.30;;
7295;SDS011;40758;54.038;11.684;2023-04-10T03:17:13;17.25;;;10.30;;
7295;SDS011;40758;54.038;11.684;2023-04-10T03:19:41;14.63;;;8.98;;
7295;SDS011;40758;54.038;11.684;2023-04-10T03:22:10;18.40;;;9.55;;
7295;SDS011;40758;54.038;11.684;2023-04-10T03:24:40;16.88;;;9.88;;
7295;SDS011;40758;54.038;11.684;2023-04-10T03:27:10;18.02;;;10.95;;
7295;SDS011;40758;54.038;11.684;2023-04-10T03:29:36;18.13;;;10.35;;
7295;SDS011;40758;54.038;11.684;2023-04-10T03:32:05;15.70;;;8.30;;
7295;SDS011;40758;54.038;11.684;2023-04-10T03:34:56;14.05;;;9.20;;
7295;SDS011;40758;54.038;11.684;2023-04-10T03:37:24;18.25;;;9.25;;
7295;SDS011;40758;54.038;11.684;2023-04-10T03:39:52;19.60;;;9.60;;
7295;SDS011;40758;54.038;11.684;2023-04-10T03:42:19;17.05;;;10.35;;
7295;SDS011;40758;54.038;11.684;2023-04-10T03:44:46;20.13;;;10.55;;
7295;SDS011;40758;54.038;11.684;2023-04-10T03:47:12;19.17;;;9.70;;
7295;SDS011;40758;54.038;11.684;2023-04-10T03:49:39;19.00;;;10.60;;
7295;SDS011;40758;54.038;11.684;2023-04-10T03:52:06;19.85;;;10.43;;
7295;SDS011;40758;54.038;11.684;2023-04-10T03:54:34;18.65;;;10.25;;
7295;SDS011;40758;54.038;11.684;2023-04-10T03:57:01;17.55;;;11.70;;
7295;SDS011;40758;54.038;11.684;2023-04-10T03:59:28;18.08;;;10.05;;
7295;SDS011;40758;54.038;11.684;2023-04-10T04:02:09;17.75;;;10.18;;
7295;SDS011;40758;54.038;11.684;2023-04-10T04:04:41;16.73;;;9.82;;
7295;SDS011;40758;54.038;11.684;2023-04-10T04:07:10;15.65;;;9.45;;
7295;SDS011;40758;54.038;11.684;2023-04-10T04:09:38;18.58;;;10.98;;
7295;SDS011;40758;54.038;11.684;2023-04-10T04:12:06;18.85;;;10.55;;
7295;SDS011;40758;54.038;11.684;2023-04-10T04:14:35;18.50;;;10.55;;
7295;SDS011;40758;54.038;11.684;2023-04-10T04:17:02;20.52;;;10.20;;
7295;SDS011;40758;54.038;11.684;2023-04-10T04:19:29;17.40;;;10.13;;
7295;SDS011;40758;54.038;11.684;2023-04-10T04:21:56;17.33;;;9.43;;
7295;SDS011;40758;54.038;11.684;2023-04-10T04:24:23;17.42;;;9.35;;
7295;SDS011;40758;54.038;11.684;2023-04-10T04:26:52;14.00;;;9.45;;
7295;SDS011;40758;54.038;11.684;2023-04-10T04:29:35;18.73;;;10.05;;
7295;SDS011;40758;54.038;11.684;2023-04-10T04:34:31;17.50;;;9.15;;
7295;SDS011;40758;54.038;11.684;2023-04-10T04:37:00;20.35;;;10.75;;
7295;SDS011;40758;54.038;11.684;2023-04-10T04:39:35;20.05;;;10.55;;
7295;SDS011;40758;54.038;11.684;2023-04-10T04:42:06;15.80;;;8.52;;
7295;SDS011;40758;54.038;11.684;2023-04-10T04:44:38;17.95;;;9.77;;
7295;SDS011;40758;54.038;11.684;2023-04-10T04:47:07;15.23;;;10.57;;
7295;SDS011;40758;54.038;11.684;2023-04-10T04:49:37;16.63;;;9.45;;
7295;SDS011;40758;54.038;11.684;2023-04-10T04:52:10;17.77;;;10.02;;
7295;SDS011;40758;54.038;11.684;2023-04-10T04:54:36;17.58;;;9.32;;
7295;SDS011;40758;54.038;11.684;2023-04-10T04:57:03;15.63;;;9.77;;
7295;SDS011;40758;54.038;11.684;2023-04-10T04:59:30;20.17;;;9.82;;
7295;SDS011;40758;54.038;11.684;2023-04-10T05:01:56;19.70;;;9.52;;
7295;SDS011;40758;54.038;11.684;2023-04-10T05:04:23;16.65;;;9.95;;
7295;SDS011;40758;54.038;11.684;2023-04-10T05:06:50;18.25;;;10.13;;
7295;SDS011;40758;54.038;11.684;2023-04-10T05:09:17;18.98;;;10.57;;
7295;SDS011;40758;54.038;11.684;2023-04-10T05:11:51;19.48;;;13.05;;
7295;SDS011;40758;54.038;11.684;2023-04-10T05:14:19;19.52;;;10.23;;
7295;SDS011;40758;54.038;11.684;2023-04-10T05:16:47;19.65;;;10.48;;
7295;SDS011;40758;54.038;11.684;2023-04-10T05:19:16;18.35;;;13.90;;
7295;SDS011;40758;54.038;11.684;2023-04-10T05:21:44;20.65;;;11.25;;
7295;SDS011;40758;54.038;11.684;2023-04-10T05:24:11;19.65;;;12.30;;
7295;SDS011;40758;54.038;11.684;2023-04-10T05:26:37;16.88;;;9.95;;
7295;SDS011;40758;54.038;11.684;2023-04-10T05:29:13;17.02;;;11.20;;
7295;SDS011;40758;54.038;11.684;2023-04-10T05:34:36;18.23;;;13.25;;
7295;SDS011;40758;54.038;11.684;2023-04-10T05:37:03;15.48;;;10.55;;
7295;SDS011;40758;54.038;11.684;2023-04-10T05:39:30;15.82;;;9.82;;
7295;SDS011;40758;54.038;11.684;2023-04-10T05:41:57;16.58;;;11.23;;
7295;SDS011;40758;54.038;11.684;2023-04-10T05:44:29;14.38;;;8.90;;
7295;SDS011;40758;54.038;11.684;2023-04-10T05:46:56;17.58;;;9.57;;
7295;SDS011;40758;54.038;11.684;2023-04-10T05:49:38;15.60;;;8.38;;
7295;SDS011;40758;54.038;11.684;2023-04-10T05:52:06;17.45;;;9.85;;
7295;SDS011;40758;54.038;11.684;2023-04-10T05:54:35;16.30;;;9.00;;
7295;SDS011;40758;54.038;11.684;2023-04-10T05:57:01;14.45;;;7.65;;
7295;SDS011;40758;54.038;11.684;2023-04-10T05:59:28;14.32;;;7.53;;
7295;SDS011;40758;54.038;11.684;2023-04-10T06:01:56;14.00;;;8.25;;
7295;SDS011;40758;54.038;11.684;2023-04-10T06:04:25;15.60;;;8.70;;
7295;SDS011;40758;54.038;11.684;2023-04-10T06:06:52;14.80;;;8.38;;
7295;SDS011;40758;54.038;11.684;2023-04-10T06:09:21;14.32;;;7.55;;
7295;SDS011;40758;54.038;11.684;2023-04-10T06:11:48;14.23;;;8.48;;
7295;SDS011;40758;54.038;11.684;2023-04-10T06:14:14;15.18;;;7.82;;
7295;SDS011;40758;54.038;11.684;2023-04-10T06:16:59;16.40;;;8.70;;
7295;SDS011;40758;54.038;11.684;2023-04-10T06:19:28;13.65;;;7.72;;
7295;SDS011;40758;54.038;11.684;2023-04-10T06:25:00;15.15;;;8.95;;
7295;SDS011;40758;54.038;11.684;2023-04-10T06:27:27;14.95;;;8.52;;
7295;SDS011;40758;54.038;11.684;2023-04-10T06:29:54;12.88;;;6.60;;
7295;SDS011;40758;54.038;11.684;2023-04-10T06:34:49;10.38;;;6.55;;
7295;SDS011;40758;54.038;11.684;2023-04-10T06:37:16;14.10;;;7.18;;
7295;SDS011;40758;54.038;11.684;2023-04-10T06:39:45;14.60;;;7.50;;
7295;SDS011;40758;54.038;11.684;2023-04-10T06:42:13;11.07;;;7.10;;
7295;SDS011;40758;54.038;11.684;2023-04-10T06:44:40;12.32;;;8.55;;
7295;SDS011;40758;54.038;11.684;2023-04-10T06:49:39;13.38;;;7.53;;
7295;SDS011;40758;54.038;11.684;2023-04-10T06:52:07;11.63;;;6.10;;
7295;SDS011;40758;54.038;11.684;2023-04-10T06:54:41;14.63;;;7.90;;
7295;SDS011;40758;54.038;11.684;2023-04-10T06:57:15;11.35;;;7.25;;
7295;SDS011;40758;54.038;11.684;2023-04-10T06:59:42;12.00;;;8.02;;
7295;SDS011;40758;54.038;11.684;2023-04-10T07:02:09;11.27;;;6.75;;
7295;SDS011;40758;54.038;11.684;2023-04-10T07:04:35;13.60;;;11.45;;
7295;SDS011;40758;54.038;11.684;2023-04-10T07:07:07;11.23;;;6.47;;
7295;SDS011;40758;54.038;11.684;2023-04-10T07:09:38;13.32;;;7.40;;
7295;SDS011;40758;54.038;11.684;2023-04-10T07:12:07;10.73;;;7.22;;
7295;SDS011;40758;54.038;11.684;2023-04-10T07:14:36;13.40;;;8.07;;
7295;SDS011;40758;54.038;11.684;2023-04-10T07:19:32;15.07;;;8.68;;
7295;SDS011;40758;54.038;11.684;2023-04-10T07:21:59;11.88;;;8.07;;
7295;SDS011;40758;54.038;11.684;2023-04-10T07:24:26;14.15;;;9.48;;
7295;SDS011;40758;54.038;11.684;2023-04-10T07:26:53;11.35;;;7.70;;
7295;SDS011;40758;54.038;11.684;2023-04-10T07:29:19;17.38;;;12.68;;
7295;SDS011;40758;54.038;11.684;2023-04-10T07:31:46;14.23;;;8.27;;
7295;SDS011;40758;54.038;11.684;2023-04-10T07:34:18;13.05;;;8.48;;
7295;SDS011;40758;54.038;11.684;2023-04-10T07:36:45;14.50;;;8.93;;
7295;SDS011;40758;54.038;11.684;2023-04-10T07:39:12;16.15;;;9.65;;
7295;SDS011;40758;54.038;11.684;2023-04-10T07:41:39;15.57;;;10.63;;
7295;SDS011;40758;54.038;11.684;2023-04-10T07:46:38;17.02;;;10.13;;
7295;SDS011;40758;54.038;11.684;2023-04-10T07:49:05;17.60;;;9.30;;
7295;SDS011;40758;54.038;11.684;2023-04-10T07:51:34;15.63;;;10.77;;
7295;SDS011;40758;54.038;11.684;2023-04-10T07:54:21;14.85;;;8.93;;
7295;SDS011;40758;54.038;11.684;2023-04-10T07:56:47;16.15;;;7.78;;
7295;SDS011;40758;54.038;11.684;2023-04-10T07:59:16;17.02;;;9.73;;
7295;SDS011;40758;54.038;11.684;2023-04-10T08:01:43;15.02;;;9.13;;
7295;SDS011;40758;54.038;11.684;2023-04-10T08:04:10;15.93;;;12.27;;
7295;SDS011;40758;54.038;11.684;2023-04-10T08:06:43;15.02;;;9.43;;
7295;SDS011;40758;54.038;11.684;2023-04-10T08:09:13;13.90;;;9.13;;
7295;SDS011;40758;54.038;11.684;2023-04-10T08:11:39;17.20;;;9.15;;
7295;SDS011;40758;54.038;11.684;2023-04-10T08:14:06;13.75;;;9.70;;
7295;SDS011;40758;54.038;11.684;2023-04-10T08:16:35;15.50;;;9.63;;
7295;SDS011;40758;54.038;11.684;2023-04-10T08:19:02;15.60;;;10.45;;
7295;SDS011;40758;54.038;11.684;2023-04-10T08:21:38;16.30;;;9.35;;
7295;SDS011;40758;54.038;11.684;2023-04-10T08:24:09;13.40;;;9.00;;
7295;SDS011;40758;54.038;11.684;2023-04-10T08:26:36;19.23;;;9.65;;
7295;SDS011;40758;54.038;11.684;2023-04-10T08:29:03;16.15;;;9.52;;
7295;SDS011;40758;54.038;11.684;2023-04-10T08:31:30;14.65;;;9.85;;
7295;SDS011;40758;54.038;11.684;2023-04-10T08:34:00;15.50;;;8.57;;
7295;SDS011;40758;54.038;11.684;2023-04-10T08:36:39;15.50;;;10.35;;
7295;SDS011;40758;54.038;11.684;2023-04-10T08:39:23;18.60;;;13.18;;
7295;SDS011;40758;54.038;11.684;2023-04-10T08:41:50;17.05;;;12.40;;
7295;SDS011;40758;54.038;11.684;2023-04-10T08:44:23;15.75;;;9.73;;
7295;SDS011;40758;54.038;11.684;2023-04-10T08:46:49;16.90;;;11.50;;
7295;SDS011;40758;54.038;11.684;2023-04-10T08:49:30;22.75;;;14.68;;
7295;SDS011;40758;54.038;11.684;2023-04-10T08:52:06;30.27;;;17.08;;
7295;SDS011;40758;54.038;11.684;2023-04-10T08:54:37;49.53;;;28.25;;
7295;SDS011;40758;54.038;11.684;2023-04-10T08:57:06;19.15;;;11.48;;
7295;SDS011;40758;54.038;11.684;2023-04-10T08:59:51;26.00;;;18.77;;
7295;SDS011;40758;54.038;11.684;2023-04-10T09:02:21;28.48;;;14.05;;
7295;SDS011;40758;54.038;11.684;2023-04-10T09:05:02;23.92;;;13.25;;
7295;SDS011;40758;54.038;11.684;2023-04-10T09:07:38;18.90;;;11.57;;
7295;SDS011;40758;54.038;11.684;2023-04-10T09:10:14;16.92;;;11.95;;
7295;SDS011;40758;54.038;11.684;2023-04-10T09:12:47;16.58;;;13.10;;
7295;SDS011;40758;54.038;11.684;2023-04-10T09:15:14;17.38;;;11.60;;
7295;SDS011;40758;54.038;11.684;2023-04-10T09:20:30;20.30;;;15.38;;
7295;SDS011;40758;54.038;11.684;2023-04-10T09:23:32;17.80;;;12.98;;
7295;SDS011;40758;54.038;11.684;2023-04-10T09:25:58;18.80;;;11.98;;
7295;SDS011;40758;54.038;11.684;2023-04-10T09:30:53;19.00;;;13.30;;
7295;SDS011;40758;54.038;11.684;2023-04-10T09:36:57;17.48;;;10.18;;
7295;SDS011;40758;54.038;11.684;2023-04-10T09:39:34;15.00;;;10.90;;
7295;SDS011;40758;54.038;11.684;2023-04-10T09:42:13;19.52;;;15.20;;
7295;SDS011;40758;54.038;11.684;2023-04-10T09:44:55;17.48;;;10.57;;
7295;SDS011;40758;54.038;11.684;2023-04-10T09:47:38;18.50;;;12.13;;
7295;SDS011;40758;54.038;11.684;2023-04-10T09:50:14;19.80;;;12.40;;
7295;SDS011;40758;54.038;11.684;2023-04-10T09:52:41;20.13;;;15.45;;
7295;SDS011;40758;54.038;11.684;2023-04-10T09:55:11;19.05;;;13.18;;
7295;SDS011;40758;54.038;11.684;2023-04-10T09:58:19;16.95;;;11.60;;
7295;SDS011;40758;54.038;11.684;2023-04-10T10:00:47;17.50;;;11.93;;
7295;SDS011;40758;54.038;11.684;2023-04-10T10:03:16;17.45;;;12.02;;
7295;SDS011;40758;54.038;11.684;2023-04-10T10:05:46;16.25;;;13.63;;
7295;SDS011;40758;54.038;11.684;2023-04-10T10:08:15;17.58;;;10.73;;
7295;SDS011;40758;54.038;11.684;2023-04-10T10:10:46;16.52;;;11.98;;
7295;SDS011;40758;54.038;11.684;2023-04-10T10:13:27;16.42;;;10.57;;
7295;SDS011;40758;54.038;11.684;2023-04-10T10:16:03;17.02;;;12.15;;
7295;SDS011;40758;54.038;11.684;2023-04-10T10:21:43;17.42;;;12.25;;
7295;SDS011;40758;54.038;11.684;2023-04-10T10:24:10;17.75;;;13.00;;
7295;SDS011;40758;54.038;11.684;2023-04-10T10:26:40;21.83;;;15.55;;
7295;SDS011;40758;54.038;11.684;2023-04-10T10:29:08;16.05;;;10.35;;
7295;SDS011;40758;54.038;11.684;2023-04-10T10:31:39;17.73;;;14.95;;
7295;SDS011;40758;54.038;11.684;2023-04-10T10:34:08;15.55;;;11.77;;
7295;SDS011;40758;54.038;11.684;2023-04-10T10:36:35;18.27;;;13.55;;
7295;SDS011;40758;54.038;11.684;2023-04-10T10:42:01;15.75;;;10.73;;
7295;SDS011;40758;54.038;11.684;2023-04-10T10:44:47;15.40;;;13.27;;
7295;SDS011;40758;54.038;11.684;2023-04-10T10:47:26;14.68;;;9.30;;
7295;SDS011;40758;54.038;11.684;2023-04-10T10:58:01;14.77;;;11.85;;
7295;SDS011;40758;54.038;11.684;2023-04-10T11:05:49;10.50;;;6.53;;
7295;SDS011;40758;54.038;11.684;2023-04-10T11:08:53;10.48;;;7.60;;
7295;SDS011;40758;54.038;11.684;2023-04-10T11:11:23;11.02;;;7.43;;
7295;SDS011;40758;54.038;11.684;2023-04-10T11:19:05;12.20;;;9.07;;
7295;SDS011;40758;54.038;11.684;2023-04-10T11:22:02;12.60;;;9.57;;
7295;SDS011;40758;54.038;11.684;2023-04-10T11:27:36;12.60;;;10.80;;
7295;SDS011;40758;54.038;11.684;2023-04-10T11:32:58;11.52;;;7.80;;
7295;SDS011;40758;54.038;11.684;2023-04-10T11:35:26;12.02;;;7.53;;
7295;SDS011;40758;54.038;11.684;2023-04-10T11:38:06;13.45;;;9.35;;
7295;SDS011;40758;54.038;11.684;2023-04-10T11:43:12;11.80;;;9.20;;
7295;SDS011;40758;54.038;11.684;2023-04-10T11:45:39;10.80;;;8.30;;
7295;SDS011;40758;54.038;11.684;2023-04-10T11:48:06;12.45;;;6.68;;
7295;SDS011;40758;54.038;11.684;2023-04-10T11:50:35;10.98;;;7.47;;
7295;SDS011;40758;54.038;11.684;2023-04-10T11:53:06;12.63;;;11.02;;
7295;SDS011;40758;54.038;11.684;2023-04-10T11:55:43;11.75;;;7.93;;
7295;SDS011;40758;54.038;11.684;2023-04-10T11:58:25;11.88;;;8.50;;
7295;SDS011;40758;54.038;11.684;2023-04-10T12:01:00;11.15;;;7.38;;
7295;SDS011;40758;54.038;11.684;2023-04-10T12:03:37;9.85;;;6.03;;
7295;SDS011;40758;54.038;11.684;2023-04-10T12:06:18;11.95;;;10.63;;
7295;SDS011;40758;54.038;11.684;2023-04-10T12:09:12;11.27;;;6.75;;
7295;SDS011;40758;54.038;11.684;2023-04-10T12:17:01;9.45;;;5.15;;
7295;SDS011;40758;54.038;11.684;2023-04-10T12:19:29;11.90;;;8.40;;
7295;SDS011;40758;54.038;11.684;2023-04-10T12:21:59;12.45;;;9.23;;
7295;SDS011;40758;54.038;11.684;2023-04-10T12:24:42;12.88;;;8.10;;
7295;SDS011;40758;54.038;11.684;2023-04-10T12:27:24;8.35;;;5.82;;
7295;SDS011;40758;54.038;11.684;2023-04-10T12:29:55;7.57;;;4.80;;
7295;SDS011;40758;54.038;11.684;2023-04-10T12:32:23;8.10;;;5.32;;
7295;SDS011;40758;54.038;11.684;2023-04-10T12:34:56;7.93;;;4.22;;
7295;SDS011;40758;54.038;11.684;2023-04-10T12:37:25;8.30;;;4.65;;
7295;SDS011;40758;54.038;11.684;2023-04-10T12:40:14;7.00;;;4.88;;
7295;SDS011;40758;54.038;11.684;2023-04-10T12:42:41;8.48;;;5.93;;
7295;SDS011;40758;54.038;11.684;2023-04-10T12:45:08;8.32;;;6.35;;
7295;SDS011;40758;54.038;11.684;2023-04-10T12:47:43;7.80;;;5.35;;
7295;SDS011;40758;54.038;11.684;2023-04-10T12:50:15;7.65;;;4.43;;
7295;SDS011;40758;54.038;11.684;2023-04-10T12:52:44;10.15;;;6.63;;
7295;SDS011;40758;54.038;11.684;2023-04-10T12:55:18;8.55;;;5.45;;
7295;SDS011;40758;54.038;11.684;2023-04-10T12:57:47;9.75;;;5.80;;
7295;SDS011;40758;54.038;11.684;2023-04-10T13:00:23;9.75;;;7.70;;
7295;SDS011;40758;54.038;11.684;2023-04-10T13:02:51;9.10;;;5.63;;
7295;SDS011;40758;54.038;11.684;2023-04-10T13:08:05;8.82;;;6.72;;
7295;SDS011;40758;54.038;11.684;2023-04-10T13:10:37;8.98;;;6.72;;
7295;SDS011;40758;54.038;11.684;2023-04-10T13:13:09;8.68;;;5.38;;
7295;SDS011;40758;54.038;11.684;2023-04-10T13:15:58;8.55;;;6.55;;
7295;SDS011;40758;54.038;11.684;2023-04-10T13:18:25;8.23;;;6.53;;
7295;SDS011;40758;54.038;11.684;2023-04-10T13:20:52;8.90;;;5.18;;
7295;SDS011;40758;54.038;11.684;2023-04-10T13:23:19;9.30;;;5.60;;
7295;SDS011;40758;54.038;11.684;2023-04-10T13:25:46;9.27;;;6.03;;
7295;SDS011;40758;54.038;11.684;2023-04-10T13:28:31;9.05;;;5.70;;
7295;SDS011;40758;54.038;11.684;2023-04-10T13:30:59;9.82;;;6.35;;
7295;SDS011;40758;54.038;11.684;2023-04-10T13:33:26;9.90;;;6.88;;
7295;SDS011;40758;54.038;11.684;2023-04-10T13:35:54;10.82;;;9.77;;
7295;SDS011;40758;54.038;11.684;2023-04-10T13:38:21;9.95;;;6.75;;
7295;SDS011;40758;54.038;11.684;2023-04-10T13:40:47;8.48;;;6.50;;
7295;SDS011;40758;54.038;11.684;2023-04-10T13:43:14;10.25;;;9.15;;
7295;SDS011;40758;54.038;11.684;2023-04-10T13:45:42;9.07;;;6.35;;
7295;SDS011;40758;54.038;11.684;2023-04-10T13:48:13;10.07;;;7.70;;
7295;SDS011;40758;54.038;11.684;2023-04-10T13:50:50;9.27;;;5.50;;
7295;SDS011;40758;54.038;11.684;2023-04-10T13:53:18;9.02;;;7.25;;
7295;SDS011;40758;54.038;11.684;2023-04-10T13:55:46;9.30;;;7.20;;
7295;SDS011;40758;54.038;11.684;2023-04-10T13:58:18;9.20;;;5.57;;
7295;SDS011;40758;54.038;11.684;2023-04-10T14:00:44;8.68;;;7.13;;
7295;SDS011;40758;54.038;11.684;2023-04-10T14:03:11;9.18;;;6.63;;
7295;SDS011;40758;54.038;11.684;2023-04-10T14:05:40;8.32;;;5.90;;
7295;SDS011;40758;54.038;11.684;2023-04-10T14:08:10;9.70;;;6.90;;
7295;SDS011;40758;54.038;11.684;2023-04-10T14:10:46;9.88;;;6.43;;
7295;SDS011;40758;54.038;11.684;2023-04-10T14:13:18;9.05;;;6.15;;
7295;SDS011;40758;54.038;11.684;2023-04-10T14:15:46;9.23;;;4.97;;
7295;SDS011;40758;54.038;11.684;2023-04-10T14:18:13;10.63;;;8.10;;
7295;SDS011;40758;54.038;11.684;2023-04-10T14:20:43;11.88;;;9.02;;
7295;SDS011;40758;54.038;11.684;2023-04-10T14:23:11;10.73;;;7.57;;
7295;SDS011;40758;54.038;11.684;2023-04-10T14:25:44;9.57;;;6.32;;
7295;SDS011;40758;54.038;11.684;2023-04-10T14:28:12;9.95;;;6.57;;
7295;SDS011;40758;54.038;11.684;2023-04-10T14:30:43;10.00;;;8.15;;
7295;SDS011;40758;54.038;11.684;2023-04-10T14:33:13;7.68;;;4.28;;
7295;SDS011;40758;54.038;11.684;2023-04-10T14:35:45;8.40;;;7.05;;
7295;SDS011;40758;54.038;11.684;2023-04-10T14:38:12;9.40;;;7.20;;
7295;SDS011;40758;54.038;11.684;2023-04-10T14:40:41;8.85;;;6.32;;
7295;SDS011;40758;54.038;11.684;2023-04-10T14:43:11;9.75;;;6.80;;
7295;SDS011;40758;54.038;11.684;2023-04-10T14:45:40;11.43;;;6.60;;
7295;SDS011;40758;54.038;11.684;2023-04-10T14:48:11;8.60;;;5.40;;
7295;SDS011;40758;54.038;11.684;2023-04-10T14:50:41;10.88;;;6.05;;
7295;SDS011;40758;54.038;11.684;2023-04-10T14:53:09;9.52;;;6.55;;
7295;SDS011;40758;54.038;11.684;2023-04-10T14:55:35;9.77;;;6.55;;
7295;SDS011;40758;54.038;11.684;2023-04-10T14:58:03;11.15;;;7.13;;
7295;SDS011;40758;54.038;11.684;2023-04-10T15:00:35;9.60;;;6.10;;
7295;SDS011;40758;54.038;11.684;2023-04-10T15:03:02;9.93;;;7.15;;
7295;SDS011;40758;54.038;11.684;2023-04-10T15:05:31;9.40;;;7.85;;
7295;SDS011;40758;54.038;11.684;2023-04-10T15:07:58;8.95;;;6.60;;
7295;SDS011;40758;54.038;11.684;2023-04-10T15:10:25;8.15;;;5.80;;
7295;SDS011;40758;54.038;11.684;2023-04-10T15:12:54;8.82;;;6.50;;
7295;SDS011;40758;54.038;11.684;2023-04-10T15:15:21;9.75;;;6.72;;
7295;SDS011;40758;54.038;11.684;2023-04-10T15:17:48;9.43;;;7.25;;
7295;SDS011;40758;54.038;11.684;2023-04-10T15:20:15;10.45;;;7.63;;
7295;SDS011;40758;54.038;11.684;2023-04-10T15:22:41;8.85;;;5.53;;
7295;SDS011;40758;54.038;11.684;2023-04-10T15:25:10;8.77;;;5.78;;
7295;SDS011;40758;54.038;11.684;2023-04-10T15:27:43;10.88;;;6.20;;
7295;SDS011;40758;54.038;11.684;2023-04-10T15:30:12;9.38;;;4.88;;
7295;SDS011;40758;54.038;11.684;2023-04-10T15:32:40;10.43;;;7.90;;
7295;SDS011;40758;54.038;11.684;2023-04-10T15:35:06;9.55;;;5.50;;
7295;SDS011;40758;54.038;11.684;2023-04-10T15:37:36;10.05;;;6.13;;
7295;SDS011;40758;54.038;11.684;2023-04-10T15:40:03;9.38;;;7.30;;
7295;SDS011;40758;54.038;11.684;2023-04-10T15:42:40;10.02;;;7.78;;
7295;SDS011;40758;54.038;11.684;2023-04-10T15:45:07;8.38;;;6.60;;
7295;SDS011;40758;54.038;11.684;2023-04-10T15:47:44;10.63;;;7.47;;
7295;SDS011;40758;54.038;11.684;2023-04-10T15:50:14;9.23;;;6.03;;
7295;SDS011;40758;54.038;11.684;2023-04-10T15:52:41;10.68;;;7.47;;
7295;SDS011;40758;54.038;11.684;2023-04-10T15:55:08;9.40;;;6.05;;
7295;SDS011;40758;54.038;11.684;2023-04-10T15:57:35;10.25;;;6.15;;
7295;SDS011;40758;54.038;11.684;2023-04-10T16:00:02;11.82;;;6.80;;
7295;SDS011;40758;54.038;11.684;2023-04-10T16:02:29;8.90;;;6.47;;
7295;SDS011;40758;54.038;11.684;2023-04-10T16:05:08;10.50;;;6.45;;
7295;SDS011;40758;54.038;11.684;2023-04-10T16:07:35;11.82;;;7.55;;
7295;SDS011;40758;54.038;11.684;2023-04-10T16:10:04;9.57;;;6.28;;
7295;SDS011;40758;54.038;11.684;2023-04-10T16:12:31;10.10;;;6.30;;
7295;SDS011;40758;54.038;11.684;2023-04-10T16:15:05;11.07;;;7.05;;
7295;SDS011;40758;54.038;11.684;2023-04-10T16:20:04;10.82;;;7.80;;